createdAt,value
2022-09-23T00:00:09.261Z,7.20
2022-09-23T00:01:12.281Z,7.10
2022-09-23T00:02:14.086Z,7.10
2022-09-23T00:03:21.566Z,7.10
2022-09-23T00:04:23.257Z,7.20
2022-09-23T00:05:24.965Z,7.20
2022-09-23T00:06:30.195Z,7.20
2022-09-23T00:07:31.874Z,7.20
2022-09-23T00:08:34.361Z,7.20
2022-09-23T00:09:36.077Z,7.20
2022-09-23T00:10:39.536Z,7.20
2022-09-23T00:11:41.177Z,7.20
2022-09-23T00:12:43.105Z,7.30
2022-09-23T00:13:46.697Z,7.30
2022-09-23T00:14:48.350Z,7.30
2022-09-23T00:15:51.638Z,7.20
2022-09-23T00:16:53.445Z,7.20
2022-09-23T00:17:55.177Z,7.20
2022-09-23T00:18:56.917Z,7.10
2022-09-23T00:19:58.773Z,7.10
2022-09-23T00:21:05.583Z,7.10
2022-09-23T00:22:07.957Z,7.00
2022-09-23T00:23:09.591Z,7.00
2022-09-23T00:24:11.294Z,6.90
2022-09-23T00:25:13.167Z,6.90
2022-09-23T00:26:18.963Z,6.90
2022-09-23T00:27:21.525Z,7.00
2022-09-23T00:28:24.401Z,6.90
2022-09-23T00:29:26.893Z,6.90
2022-09-23T00:30:29.377Z,6.90
2022-09-23T00:31:31.794Z,6.90
2022-09-23T00:32:34.650Z,6.90
2022-09-23T00:33:36.485Z,6.80
2022-09-23T00:34:38.210Z,6.80
2022-09-23T00:35:39.855Z,6.70
2022-09-23T00:36:43.307Z,6.70
2022-09-23T00:37:44.991Z,6.70
2022-09-23T00:38:46.921Z,6.70
2022-09-23T00:39:48.625Z,6.70
2022-09-23T00:40:50.454Z,6.60
2022-09-23T00:41:52.674Z,6.60
2022-09-23T00:42:54.337Z,6.60
2022-09-23T00:44:01.248Z,6.70
2022-09-23T00:45:04.337Z,6.60
2022-09-23T00:46:12.639Z,6.60
2022-09-23T00:47:22.851Z,6.70
2022-09-23T00:48:24.541Z,6.70
2022-09-23T00:49:30.163Z,6.70
2022-09-23T00:50:38.534Z,6.70
2022-09-23T00:51:48.809Z,6.70
2022-09-23T00:52:53.691Z,6.70
2022-09-23T00:53:55.965Z,6.70
2022-09-23T00:55:00.696Z,6.80
2022-09-23T00:56:07.289Z,6.80
2022-09-23T00:57:11.147Z,6.80
2022-09-23T00:58:17.731Z,6.80
2022-09-23T00:59:20.681Z,6.80
2022-09-23T01:00:23.326Z,6.70
2022-09-23T01:01:25.682Z,6.70
2022-09-23T01:02:28.398Z,6.70
2022-09-23T01:03:31.902Z,6.70
2022-09-23T01:04:34.279Z,6.70
2022-09-23T01:05:36.585Z,6.70
2022-09-23T01:06:38.289Z,6.70
2022-09-23T01:07:40.159Z,6.60
2022-09-23T01:08:45.813Z,6.60
2022-09-23T01:09:48.672Z,6.60
2022-09-23T01:10:56.007Z,6.70
2022-09-23T01:11:57.658Z,6.70
2022-09-23T01:13:21.190Z,6.70
2022-09-23T01:14:51.420Z,6.70
2022-09-23T01:16:05.633Z,6.70
2022-09-23T01:17:36.588Z,6.70
2022-09-23T01:18:50.082Z,6.70
2022-09-23T01:20:06.868Z,6.70
2022-09-23T01:21:37.454Z,6.70
2022-09-23T01:23:14.112Z,6.60
2022-09-23T01:24:26.167Z,6.60
2022-09-23T01:25:36.946Z,6.60
2022-09-23T01:27:09.720Z,6.60
2022-09-23T01:28:49.299Z,6.60
2022-09-23T01:30:18.856Z,6.60
2022-09-23T01:31:20.573Z,6.50
2022-09-23T01:32:38.676Z,6.50
2022-09-23T01:34:07.308Z,6.50
2022-09-23T01:35:11.967Z,6.50
2022-09-23T01:36:31.487Z,6.50
2022-09-23T01:37:45.676Z,6.50
2022-09-23T01:39:00.894Z,6.50
2022-09-23T01:40:25.329Z,6.50
2022-09-23T01:41:52.666Z,6.50
2022-09-23T01:43:02.570Z,6.50
2022-09-23T01:44:34.335Z,6.60
2022-09-23T01:45:48.193Z,6.60
2022-09-23T01:46:55.594Z,6.60
2022-09-23T01:48:18.321Z,6.60
2022-09-23T01:49:39.879Z,6.50
2022-09-23T01:50:58.123Z,6.50
2022-09-23T01:52:07.431Z,6.50
2022-09-23T01:53:57.893Z,6.60
2022-09-23T01:55:35.327Z,6.60
2022-09-23T01:56:41.855Z,6.60
2022-09-23T01:58:06.744Z,6.50
2022-09-23T01:59:39.948Z,6.50
2022-09-23T02:00:49.255Z,6.50
2022-09-23T02:02:00.712Z,6.50
2022-09-23T02:03:12.725Z,6.40
2022-09-23T02:04:25.145Z,6.40
2022-09-23T02:05:36.889Z,6.30
2022-09-23T02:06:50.732Z,6.40
2022-09-23T02:08:04.405Z,6.40
2022-09-23T02:09:12.246Z,6.40
2022-09-23T02:10:23.010Z,6.30
2022-09-23T02:11:25.012Z,6.30
2022-09-23T02:12:29.749Z,6.30
2022-09-23T02:13:50.319Z,6.30
2022-09-23T02:15:08.836Z,6.30
2022-09-23T02:16:34.428Z,6.30
2022-09-23T02:18:01.273Z,6.30
2022-09-23T02:19:12.079Z,6.30
2022-09-23T02:20:20.842Z,6.30
2022-09-23T02:21:26.578Z,6.20
2022-09-23T02:22:35.393Z,6.20
2022-09-23T02:23:52.978Z,6.30
2022-09-23T02:24:57.510Z,6.30
2022-09-23T02:26:11.854Z,6.30
2022-09-23T02:27:36.575Z,6.30
2022-09-23T02:28:46.001Z,6.30
2022-09-23T02:30:05.959Z,6.30
2022-09-23T02:31:27.698Z,6.30
2022-09-23T02:32:48.056Z,6.20
2022-09-23T02:34:24.759Z,6.10
2022-09-23T02:35:49.123Z,6.10
2022-09-23T02:37:09.606Z,6.00
2022-09-23T02:38:40.954Z,5.90
2022-09-23T02:40:09.211Z,5.90
2022-09-23T02:41:26.820Z,5.90
2022-09-23T02:43:00.208Z,5.90
2022-09-23T02:44:04.868Z,5.90
2022-09-23T02:45:06.926Z,5.90
2022-09-23T02:46:09.057Z,5.90
2022-09-23T02:47:10.844Z,5.90
2022-09-23T02:48:26.092Z,5.90
2022-09-23T02:49:29.984Z,5.90
2022-09-23T02:50:33.457Z,5.90
2022-09-23T02:51:37.843Z,5.90
2022-09-23T02:52:39.632Z,5.90
2022-09-23T02:53:41.535Z,6.00
2022-09-23T02:54:44.029Z,6.00
2022-09-23T02:55:45.699Z,6.00
2022-09-23T02:56:50.602Z,5.90
2022-09-23T02:57:53.425Z,5.90
2022-09-23T02:58:55.562Z,5.90
2022-09-23T02:59:58.440Z,5.90
2022-09-23T03:01:26.251Z,5.90
2022-09-23T03:03:06.421Z,5.90
2022-09-23T03:04:27.015Z,5.90
2022-09-23T03:05:31.487Z,5.80
2022-09-23T03:06:47.148Z,5.80
2022-09-23T03:08:01.671Z,5.80
2022-09-23T03:09:19.929Z,5.80
2022-09-23T03:10:28.148Z,5.80
2022-09-23T03:11:32.368Z,5.80
2022-09-23T03:12:36.022Z,5.80
2022-09-23T03:13:48.774Z,5.80
2022-09-23T03:15:24.744Z,5.80
2022-09-23T03:16:44.031Z,5.80
2022-09-23T03:18:10.013Z,5.80
2022-09-23T03:19:19.956Z,5.80
2022-09-23T03:20:38.155Z,5.80
2022-09-23T03:21:51.650Z,5.80
2022-09-23T03:22:59.723Z,5.70
2022-09-23T03:24:06.310Z,5.70
2022-09-23T03:25:14.695Z,5.80
2022-09-23T03:26:31.428Z,5.70
2022-09-23T03:27:36.487Z,5.70
2022-09-23T03:28:43.660Z,5.70
2022-09-23T03:29:48.663Z,5.70
2022-09-23T03:30:53.065Z,5.70
2022-09-23T03:31:57.144Z,5.60
2022-09-23T03:33:00.985Z,5.60
2022-09-23T03:34:12.643Z,5.60
2022-09-23T03:35:14.957Z,5.60
2022-09-23T03:36:39.246Z,5.70
2022-09-23T03:37:50.261Z,5.60
2022-09-23T03:38:59.543Z,5.70
2022-09-23T03:40:19.327Z,5.70
2022-09-23T03:41:40.920Z,5.70
2022-09-23T03:42:43.011Z,5.70
2022-09-23T03:43:45.558Z,5.70
2022-09-23T03:44:48.915Z,5.70
2022-09-23T03:45:57.386Z,5.70
2022-09-23T03:47:02.332Z,5.70
2022-09-23T03:48:04.359Z,5.70
2022-09-23T03:49:14.854Z,5.60
2022-09-23T03:50:19.353Z,5.60
2022-09-23T03:51:23.825Z,5.60
2022-09-23T03:52:26.318Z,5.60
2022-09-23T03:53:27.993Z,5.60
2022-09-23T03:54:30.267Z,5.60
2022-09-23T03:55:32.299Z,5.60
2022-09-23T03:56:33.995Z,5.60
2022-09-23T03:57:36.392Z,5.60
2022-09-23T03:58:38.382Z,5.70
2022-09-23T03:59:40.394Z,5.70
2022-09-23T04:00:42.414Z,5.70
2022-09-23T04:01:45.842Z,5.70
2022-09-23T04:02:48.234Z,5.50
2022-09-23T04:03:51.359Z,5.50
2022-09-23T04:04:53.009Z,5.50
2022-09-23T04:05:54.673Z,5.50
2022-09-23T04:06:56.753Z,5.50
2022-09-23T04:07:58.410Z,5.50
2022-09-23T04:09:01.510Z,5.50
2022-09-23T04:10:04.910Z,5.40
2022-09-23T04:11:06.791Z,5.50
2022-09-23T04:12:11.782Z,5.40
2022-09-23T04:13:13.402Z,5.40
2022-09-23T04:14:15.168Z,5.50
2022-09-23T04:15:16.927Z,5.50
2022-09-23T04:16:18.806Z,5.50
2022-09-23T04:17:20.465Z,5.40
2022-09-23T04:18:22.308Z,5.40
2022-09-23T04:19:23.994Z,5.50
2022-09-23T04:20:28.952Z,5.40
2022-09-23T04:21:31.073Z,5.50
2022-09-23T04:22:38.626Z,5.50
2022-09-23T04:23:40.485Z,5.50
2022-09-23T04:24:42.126Z,5.50
2022-09-23T04:25:49.649Z,5.50
2022-09-23T04:26:53.444Z,5.50
2022-09-23T04:27:55.288Z,5.40
2022-09-23T04:28:56.979Z,5.40
2022-09-23T04:29:58.633Z,5.40
2022-09-23T04:31:07.060Z,5.40
2022-09-23T04:32:08.783Z,5.40
2022-09-23T04:33:11.288Z,5.40
2022-09-23T04:34:13.160Z,5.30
2022-09-23T04:35:15.000Z,5.30
2022-09-23T04:36:17.112Z,5.30
2022-09-23T04:37:18.744Z,5.30
2022-09-23T04:38:20.467Z,5.40
2022-09-23T04:39:22.126Z,5.40
2022-09-23T04:40:23.854Z,5.30
2022-09-23T04:41:25.546Z,5.30
2022-09-23T04:42:29.716Z,5.30
2022-09-23T04:43:31.369Z,5.30
2022-09-23T04:44:34.830Z,5.20
2022-09-23T04:45:36.558Z,5.20
2022-09-23T04:46:39.192Z,5.20
2022-09-23T04:47:40.944Z,5.20
2022-09-23T04:48:42.909Z,5.20
2022-09-23T04:49:44.601Z,5.20
2022-09-23T04:50:46.428Z,5.20
2022-09-23T04:51:48.073Z,5.10
2022-09-23T04:52:49.725Z,5.10
2022-09-23T04:53:53.237Z,5.10
2022-09-23T04:54:54.893Z,5.20
2022-09-23T04:56:02.639Z,5.30
2022-09-23T04:57:04.459Z,5.30
2022-09-23T04:58:06.121Z,5.30
2022-09-23T04:59:07.919Z,5.30
2022-09-23T05:00:12.388Z,5.30
2022-09-23T05:01:19.179Z,5.30
2022-09-23T05:02:21.644Z,5.30
2022-09-23T05:03:24.293Z,5.30
2022-09-23T05:04:26.023Z,5.20
2022-09-23T05:05:28.104Z,5.30
2022-09-23T05:06:31.531Z,5.20
2022-09-23T05:07:33.305Z,5.30
2022-09-23T05:08:35.641Z,5.20
2022-09-23T05:09:37.285Z,5.20
2022-09-23T05:10:38.942Z,5.20
2022-09-23T05:11:40.607Z,5.20
2022-09-23T05:12:42.600Z,5.20
2022-09-23T05:13:45.236Z,5.20
2022-09-23T05:14:46.907Z,5.20
2022-09-23T05:15:48.624Z,5.20
2022-09-23T05:16:50.291Z,5.20
2022-09-23T05:17:51.928Z,5.10
2022-09-23T05:18:54.219Z,5.10
2022-09-23T05:19:58.008Z,5.10
2022-09-23T05:20:59.781Z,5.10
2022-09-23T05:22:01.442Z,5.10
2022-09-23T05:23:03.091Z,5.10
2022-09-23T05:24:05.215Z,5.10
2022-09-23T05:25:07.183Z,5.10
2022-09-23T05:26:11.173Z,5.10
2022-09-23T05:27:12.976Z,5.10
2022-09-23T05:28:19.971Z,5.10
2022-09-23T05:29:21.634Z,5.10
2022-09-23T05:30:23.279Z,5.20
2022-09-23T05:31:27.510Z,5.20
2022-09-23T05:32:29.184Z,5.20
2022-09-23T05:33:31.898Z,5.30
2022-09-23T05:34:33.638Z,5.30
2022-09-23T05:35:35.279Z,5.30
2022-09-23T05:36:39.029Z,5.30
2022-09-23T05:37:41.017Z,5.30
2022-09-23T05:38:42.796Z,5.30
2022-09-23T05:39:44.463Z,5.30
2022-09-23T05:40:46.163Z,5.30
2022-09-23T05:41:49.004Z,5.30
2022-09-23T05:42:51.350Z,5.30
2022-09-23T05:43:54.951Z,5.30
2022-09-23T05:44:56.590Z,5.30
2022-09-23T05:46:18.676Z,5.30
2022-09-23T05:47:20.506Z,5.30
2022-09-23T05:48:22.139Z,5.40
2022-09-23T05:49:37.636Z,5.40
2022-09-23T05:50:51.791Z,5.40
2022-09-23T05:51:53.417Z,5.40
2022-09-23T05:52:55.343Z,5.40
2022-09-23T05:54:02.873Z,5.40
2022-09-23T05:55:05.493Z,5.40
2022-09-23T05:56:07.887Z,5.50
2022-09-23T05:57:09.718Z,5.50
2022-09-23T05:58:13.106Z,5.50
2022-09-23T05:59:14.737Z,5.50
2022-09-23T06:00:16.733Z,5.50
2022-09-23T06:01:26.636Z,5.50
2022-09-23T06:02:28.421Z,5.50
2022-09-23T06:03:30.109Z,5.50
2022-09-23T06:04:31.812Z,5.50
2022-09-23T06:05:33.472Z,5.50
2022-09-23T06:06:38.043Z,5.50
2022-09-23T06:07:39.729Z,5.50
2022-09-23T06:08:42.504Z,5.60
2022-09-23T06:09:44.145Z,5.60
2022-09-23T06:10:47.861Z,5.60
2022-09-23T06:11:51.370Z,5.60
2022-09-23T06:12:53.086Z,5.60
2022-09-23T06:13:56.322Z,5.70
2022-09-23T06:14:58.476Z,5.70
2022-09-23T06:16:00.333Z,5.70
2022-09-23T06:17:02.164Z,5.80
2022-09-23T06:18:05.446Z,5.80
2022-09-23T06:19:07.302Z,5.90
2022-09-23T06:20:09.487Z,5.90
2022-09-23T06:21:16.368Z,6.00
2022-09-23T06:22:18.721Z,6.00
2022-09-23T06:23:23.347Z,6.00
2022-09-23T06:24:31.101Z,6.10
2022-09-23T06:25:34.959Z,6.10
2022-09-23T06:26:37.731Z,6.10
2022-09-23T06:27:39.392Z,6.20
2022-09-23T06:28:43.015Z,6.20
2022-09-23T06:29:44.647Z,6.30
2022-09-23T06:30:46.281Z,6.40
2022-09-23T06:31:49.790Z,6.40
2022-09-23T06:32:58.071Z,6.50
2022-09-23T06:34:09.520Z,6.60
2022-09-23T06:35:24.139Z,6.60
2022-09-23T06:36:40.233Z,6.70
2022-09-23T06:37:45.588Z,6.80
2022-09-23T06:38:49.367Z,6.90
2022-09-23T06:39:51.034Z,7.00
2022-09-23T06:40:54.659Z,7.10
2022-09-23T06:41:56.349Z,7.20
2022-09-23T06:43:01.855Z,7.30
2022-09-23T06:44:03.779Z,7.40
2022-09-23T06:45:05.743Z,7.50
2022-09-23T06:46:10.881Z,7.50
2022-09-23T06:47:12.570Z,7.60
2022-09-23T06:48:14.174Z,7.70
2022-09-23T06:49:15.845Z,7.80
2022-09-23T06:50:17.986Z,7.80
2022-09-23T06:51:19.635Z,7.90
2022-09-23T06:52:21.276Z,8.00
2022-09-23T06:53:23.667Z,8.00
2022-09-23T06:54:28.373Z,8.10
2022-09-23T06:55:30.377Z,8.20
2022-09-23T06:56:37.769Z,8.20
2022-09-23T06:57:41.507Z,8.30
2022-09-23T06:58:43.212Z,8.30
2022-09-23T06:59:44.942Z,8.40
2022-09-23T07:00:46.611Z,8.40
2022-09-23T07:01:48.492Z,8.50
2022-09-23T07:02:50.600Z,8.60
2022-09-23T07:03:52.435Z,8.70
2022-09-23T07:04:57.072Z,8.80
2022-09-23T07:05:59.265Z,8.90
2022-09-23T07:07:01.194Z,8.90
2022-09-23T07:08:03.301Z,9.00
2022-09-23T07:09:07.162Z,9.00
2022-09-23T07:10:09.795Z,9.10
2022-09-23T07:11:13.238Z,9.20
2022-09-23T07:12:15.148Z,9.20
2022-09-23T07:13:16.811Z,9.30
2022-09-23T07:14:18.530Z,9.30
2022-09-23T07:15:20.189Z,9.30
2022-09-23T07:16:22.077Z,9.40
2022-09-23T07:17:24.515Z,9.40
2022-09-23T07:18:29.470Z,9.50
2022-09-23T07:19:35.214Z,9.50
2022-09-23T07:20:36.843Z,9.60
2022-09-23T07:21:38.508Z,9.60
2022-09-23T07:22:40.302Z,9.70
2022-09-23T07:23:42.871Z,9.80
2022-09-23T07:24:46.571Z,9.90
2022-09-23T07:25:49.475Z,9.90
2022-09-23T07:26:51.132Z,9.90
2022-09-23T07:27:52.766Z,10.00
2022-09-23T07:28:56.552Z,10.10
2022-09-23T07:29:58.249Z,10.20
2022-09-23T07:31:09.782Z,10.30
2022-09-23T07:32:14.371Z,10.40
2022-09-23T07:33:29.732Z,10.50
2022-09-23T07:34:32.992Z,10.50
2022-09-23T07:35:38.151Z,10.60
2022-09-23T07:36:40.859Z,10.70
2022-09-23T07:37:42.886Z,10.70
2022-09-23T07:38:45.877Z,10.80
2022-09-23T07:39:47.698Z,10.90
2022-09-23T07:40:49.417Z,11.00
2022-09-23T07:41:51.201Z,11.10
2022-09-23T07:42:53.330Z,11.20
2022-09-23T07:44:00.343Z,11.30
2022-09-23T07:45:02.700Z,11.30
2022-09-23T07:46:08.242Z,11.40
2022-09-23T07:47:10.195Z,11.50
2022-09-23T07:48:11.935Z,11.60
2022-09-23T07:49:13.655Z,11.60
2022-09-23T07:50:15.296Z,11.70
2022-09-23T07:51:34.716Z,11.80
2022-09-23T07:52:38.660Z,11.80
2022-09-23T07:53:40.439Z,11.80
2022-09-23T07:54:42.275Z,11.80
2022-09-23T07:55:51.055Z,11.90
2022-09-23T07:56:52.735Z,11.90
2022-09-23T07:57:54.438Z,12.00
2022-09-23T07:59:05.768Z,12.00
2022-09-23T08:00:08.351Z,12.10
2022-09-23T08:01:12.065Z,12.20
2022-09-23T08:02:15.508Z,12.20
2022-09-23T08:03:17.529Z,12.20
2022-09-23T08:04:23.385Z,12.30
2022-09-23T08:05:26.312Z,12.40
2022-09-23T08:06:28.020Z,12.50
2022-09-23T08:07:29.670Z,12.50
2022-09-23T08:08:31.953Z,12.60
2022-09-23T08:09:41.426Z,12.70
2022-09-23T08:10:43.411Z,12.70
2022-09-23T08:11:45.452Z,12.80
2022-09-23T08:12:48.845Z,12.90
2022-09-23T08:13:50.764Z,12.90
2022-09-23T08:14:52.423Z,13.00
2022-09-23T08:15:55.659Z,13.00
2022-09-23T08:16:57.816Z,13.10
2022-09-23T08:17:59.889Z,13.20
2022-09-23T08:19:02.510Z,13.30
2022-09-23T08:20:04.714Z,13.40
2022-09-23T08:21:06.338Z,13.40
2022-09-23T08:22:08.271Z,13.50
2022-09-23T08:23:11.185Z,13.50
2022-09-23T08:24:16.267Z,13.60
2022-09-23T08:25:21.833Z,13.60
2022-09-23T08:26:24.724Z,13.70
2022-09-23T08:27:29.330Z,13.70
2022-09-23T08:28:31.937Z,13.70
2022-09-23T08:29:33.777Z,13.80
2022-09-23T08:30:35.486Z,13.80
2022-09-23T08:31:37.175Z,13.90
2022-09-23T08:32:38.852Z,13.90
2022-09-23T08:33:41.052Z,14.00
2022-09-23T08:34:42.710Z,14.10
2022-09-23T08:35:44.355Z,14.20
2022-09-23T08:36:46.823Z,14.30
2022-09-23T08:37:48.939Z,14.40
2022-09-23T08:38:50.695Z,14.40
2022-09-23T08:39:52.355Z,14.50
2022-09-23T08:41:05.670Z,14.60
2022-09-23T08:42:30.571Z,14.70
2022-09-23T08:43:34.694Z,14.80
2022-09-23T08:44:39.587Z,14.90
2022-09-23T08:45:43.459Z,15.00
2022-09-23T08:46:54.993Z,15.10
2022-09-23T08:48:08.534Z,15.10
2022-09-23T08:49:25.965Z,15.20
2022-09-23T08:50:42.316Z,15.30
2022-09-23T08:51:47.270Z,15.40
2022-09-23T08:52:57.067Z,15.40
2022-09-23T08:53:59.537Z,15.50
2022-09-23T08:55:03.097Z,15.60
2022-09-23T08:56:15.005Z,15.60
2022-09-23T08:59:42.842Z,15.60
2022-09-23T09:00:49.627Z,15.50
2022-09-23T09:01:59.911Z,15.50
2022-09-23T09:03:01.942Z,15.50
2022-09-23T09:04:17.443Z,15.60
2022-09-23T09:05:26.245Z,15.60
2022-09-23T09:06:52.285Z,15.80
2022-09-23T09:08:00.295Z,15.80
2022-09-23T09:09:04.884Z,15.90
2022-09-23T09:10:41.775Z,15.90
2022-09-23T09:11:48.738Z,16.10
2022-09-23T09:13:00.334Z,16.20
2022-09-23T09:14:02.029Z,16.30
2022-09-23T09:15:13.983Z,16.50
2022-09-23T09:16:59.459Z,16.60
2022-09-23T09:18:11.398Z,16.70
2022-09-23T09:19:21.729Z,16.80
2022-09-23T09:20:25.036Z,16.80
2022-09-23T09:21:37.594Z,16.90
2022-09-23T09:23:00.445Z,16.80
2022-09-23T09:24:04.240Z,16.80
2022-09-23T09:25:34.269Z,16.70
2022-09-23T09:26:37.692Z,16.80
2022-09-23T09:27:41.241Z,16.90
2022-09-23T09:28:51.176Z,16.90
2022-09-23T09:29:54.598Z,17.00
2022-09-23T09:31:21.381Z,17.10
2022-09-23T09:32:47.325Z,17.10
2022-09-23T09:34:00.036Z,17.10
2022-09-23T09:35:15.662Z,17.00
2022-09-23T09:36:26.182Z,17.00
2022-09-23T09:37:41.197Z,16.90
2022-09-23T09:38:42.892Z,16.90
2022-09-23T09:39:44.535Z,16.90
2022-09-23T09:40:48.155Z,17.00
2022-09-23T09:41:59.463Z,17.10
2022-09-23T09:43:05.209Z,17.20
2022-09-23T09:44:25.026Z,17.20
2022-09-23T09:45:59.094Z,17.10
2022-09-23T09:47:11.661Z,17.00
2022-09-23T09:48:25.090Z,16.80
2022-09-23T09:49:40.300Z,16.70
2022-09-23T09:50:49.302Z,16.70
2022-09-23T09:52:14.650Z,16.70
2022-09-23T09:53:21.796Z,16.70
2022-09-23T09:54:25.981Z,16.80
2022-09-23T09:55:28.918Z,16.90
2022-09-23T09:56:33.491Z,17.00
2022-09-23T09:57:53.713Z,17.00
2022-09-23T09:59:10.696Z,17.00
2022-09-23T10:00:27.724Z,16.90
2022-09-23T10:01:32.055Z,16.80
2022-09-23T10:02:39.559Z,16.80
2022-09-23T10:03:43.252Z,16.80
2022-09-23T10:04:45.327Z,16.80
2022-09-23T10:05:50.196Z,16.80
2022-09-23T10:07:14.187Z,16.80
2022-09-23T10:08:18.868Z,16.80
2022-09-23T10:09:22.117Z,16.80
2022-09-23T10:10:33.769Z,16.80
2022-09-23T10:11:36.099Z,16.90
2022-09-23T10:12:49.603Z,16.90
2022-09-23T10:14:04.023Z,16.90
2022-09-23T10:15:27.412Z,16.90
2022-09-23T10:16:34.420Z,16.80
2022-09-23T10:17:38.555Z,16.80
2022-09-23T10:18:50.931Z,16.80
2022-09-23T10:20:06.065Z,16.70
2022-09-23T10:21:16.027Z,16.80
2022-09-23T10:22:26.297Z,16.80
2022-09-23T10:23:29.028Z,16.80
2022-09-23T10:24:34.220Z,16.80
2022-09-23T10:25:36.916Z,16.90
2022-09-23T10:26:43.834Z,16.90
2022-09-23T10:27:45.589Z,17.00
2022-09-23T10:28:50.561Z,17.00
2022-09-23T10:29:56.876Z,17.00
2022-09-23T10:31:10.974Z,17.00
2022-09-23T10:32:37.232Z,16.90
2022-09-23T10:33:48.664Z,16.90
2022-09-23T10:35:13.339Z,16.90
2022-09-23T10:36:18.771Z,16.90
2022-09-23T10:37:51.671Z,17.00
2022-09-23T10:39:18.140Z,17.00
2022-09-23T10:40:47.565Z,17.20
2022-09-23T10:42:24.888Z,17.40
2022-09-23T10:44:09.538Z,17.60
2022-09-23T10:45:43.361Z,17.90
2022-09-23T10:46:54.182Z,18.10
2022-09-23T10:48:29.108Z,18.40
2022-09-23T10:49:58.238Z,18.50
2022-09-23T10:51:00.741Z,18.80
2022-09-23T10:52:36.380Z,18.90
2022-09-23T10:53:59.298Z,19.10
2022-09-23T10:55:17.792Z,19.30
2022-09-23T10:56:22.421Z,19.30
2022-09-23T10:57:41.135Z,19.40
2022-09-23T10:59:03.747Z,19.40
2022-09-23T11:00:27.434Z,19.30
2022-09-23T11:02:02.140Z,19.30
2022-09-23T11:03:40.164Z,19.20
2022-09-23T11:05:09.687Z,19.20
2022-09-23T11:06:26.630Z,19.10
2022-09-23T11:07:38.961Z,19.10
2022-09-23T11:08:59.195Z,19.00
2022-09-23T11:10:46.006Z,19.00
2022-09-23T11:12:01.315Z,19.00
2022-09-23T11:13:37.370Z,19.00
2022-09-23T11:15:00.707Z,19.00
2022-09-23T11:16:17.423Z,18.90
2022-09-23T11:17:37.415Z,18.90
2022-09-23T11:18:53.061Z,18.90
2022-09-23T11:20:03.036Z,18.90
2022-09-23T11:21:30.694Z,19.00
2022-09-23T11:22:45.640Z,19.10
2022-09-23T11:24:24.733Z,19.20
2022-09-23T11:25:47.201Z,19.30
2022-09-23T11:27:16.800Z,19.40
2022-09-23T11:28:55.333Z,19.50
2022-09-23T11:30:11.270Z,19.50
2022-09-23T11:31:27.776Z,19.50
2022-09-23T11:32:41.899Z,19.50
2022-09-23T11:34:07.842Z,19.50
2022-09-23T11:35:32.268Z,19.40
2022-09-23T11:37:14.073Z,19.30
2022-09-23T11:38:27.727Z,19.10
2022-09-23T11:39:42.558Z,18.90
2022-09-23T11:40:48.222Z,18.80
2022-09-23T11:41:54.146Z,18.60
2022-09-23T11:43:11.259Z,18.60
2022-09-23T11:44:19.966Z,18.60
2022-09-23T11:46:05.273Z,18.70
2022-09-23T11:47:26.225Z,18.80
2022-09-23T11:48:37.578Z,18.80
2022-09-23T11:49:47.449Z,18.70
2022-09-23T11:51:06.690Z,18.80
2022-09-23T11:52:14.250Z,18.80
2022-09-23T11:53:24.484Z,18.80
2022-09-23T11:54:34.814Z,18.90
2022-09-23T11:55:54.385Z,19.00
2022-09-23T11:57:02.779Z,19.20
2022-09-23T11:58:25.324Z,19.30
2022-09-23T11:59:43.252Z,19.50
2022-09-23T12:01:00.239Z,19.60
2022-09-23T12:02:21.121Z,19.60
2022-09-23T12:03:43.995Z,19.70
2022-09-23T12:04:58.261Z,19.80
2022-09-23T12:06:09.152Z,19.90
2022-09-23T12:07:16.520Z,20.00
2022-09-23T12:08:29.241Z,20.00
2022-09-23T12:09:58.580Z,20.00
2022-09-23T12:11:22.113Z,20.00
2022-09-23T12:12:49.269Z,19.90
2022-09-23T12:14:14.320Z,19.70
2022-09-23T12:15:39.440Z,19.60
2022-09-23T12:17:12.792Z,19.40
2022-09-23T12:18:35.657Z,19.30
2022-09-23T12:20:16.188Z,19.10
2022-09-23T12:22:00.417Z,19.00
2022-09-23T12:23:02.046Z,19.00
2022-09-23T12:24:47.987Z,18.80
2022-09-23T12:26:00.672Z,18.70
2022-09-23T12:27:07.018Z,18.70
2022-09-23T12:28:19.009Z,18.80
2022-09-23T12:29:21.033Z,18.80
2022-09-23T12:30:27.843Z,18.80
2022-09-23T12:31:31.842Z,18.80
2022-09-23T12:32:35.531Z,18.80
2022-09-23T12:33:38.768Z,18.90
2022-09-23T12:34:47.920Z,18.90
2022-09-23T12:35:50.754Z,18.90
2022-09-23T12:36:52.522Z,18.90
2022-09-23T12:37:54.532Z,18.90
2022-09-23T12:39:05.065Z,19.00
2022-09-23T12:40:35.587Z,19.00
2022-09-23T12:41:43.640Z,19.10
2022-09-23T12:42:47.035Z,19.10
2022-09-23T12:43:57.111Z,19.10
2022-09-23T12:45:32.630Z,19.20
2022-09-23T12:46:34.524Z,19.20
2022-09-23T12:47:40.581Z,19.30
2022-09-23T12:49:03.558Z,19.40
2022-09-23T12:50:43.726Z,19.40
2022-09-23T12:52:14.448Z,19.50
2022-09-23T12:53:34.591Z,19.50
2022-09-23T12:54:38.133Z,19.60
2022-09-23T12:55:39.767Z,19.60
2022-09-23T12:56:42.363Z,19.60
2022-09-23T12:57:44.043Z,19.50
2022-09-23T12:58:48.886Z,19.50
2022-09-23T13:00:12.664Z,19.40
2022-09-23T13:01:18.094Z,19.30
2022-09-23T13:03:09.625Z,19.30
2022-09-23T13:04:52.352Z,19.20
2022-09-23T13:06:19.433Z,19.10
2022-09-23T13:07:31.422Z,19.10
2022-09-23T13:08:37.900Z,19.00
2022-09-23T13:09:42.824Z,19.00
2022-09-23T13:10:50.696Z,19.00
2022-09-23T13:11:56.016Z,18.90
2022-09-23T13:12:58.617Z,18.90
2022-09-23T13:14:04.155Z,18.90
2022-09-23T13:15:38.561Z,18.90
2022-09-23T13:16:45.544Z,18.90
2022-09-23T13:17:47.584Z,18.90
2022-09-23T13:18:57.830Z,18.90
2022-09-23T13:20:19.414Z,18.80
2022-09-23T13:21:42.938Z,18.80
2022-09-23T13:22:53.345Z,18.80
2022-09-23T13:24:31.166Z,18.80
2022-09-23T13:25:39.235Z,18.80
2022-09-23T13:26:51.311Z,18.90
2022-09-23T13:28:00.344Z,18.90
2022-09-23T13:29:03.663Z,18.90
2022-09-23T13:30:19.385Z,18.90
2022-09-23T13:31:24.359Z,18.90
2022-09-23T13:32:39.529Z,18.80
2022-09-23T13:33:47.257Z,18.90
2022-09-23T13:35:05.938Z,18.90
2022-09-23T13:36:13.820Z,18.90
2022-09-23T13:37:22.799Z,19.00
2022-09-23T13:38:28.120Z,19.10
2022-09-23T13:39:29.895Z,19.10
2022-09-23T13:40:32.906Z,19.10
2022-09-23T13:41:35.952Z,19.10
2022-09-23T13:42:40.099Z,19.10
2022-09-23T13:43:55.277Z,19.10
2022-09-23T13:44:59.051Z,19.00
2022-09-23T13:46:02.055Z,18.90
2022-09-23T13:47:03.843Z,18.90
2022-09-23T13:48:15.351Z,18.80
2022-09-23T13:49:26.145Z,18.80
2022-09-23T13:50:34.119Z,18.70
2022-09-23T13:51:36.925Z,18.70
2022-09-23T13:52:38.655Z,18.70
2022-09-23T13:53:40.299Z,18.60
2022-09-23T13:54:51.345Z,18.60
2022-09-23T13:56:12.390Z,18.70
2022-09-23T13:57:34.886Z,18.70
2022-09-23T13:58:36.687Z,18.70
2022-09-23T13:59:41.659Z,18.70
2022-09-23T14:00:43.613Z,18.70
2022-09-23T14:01:47.006Z,18.70
2022-09-23T14:02:48.742Z,18.70
2022-09-23T14:03:51.355Z,18.70
2022-09-23T14:04:56.596Z,18.70
2022-09-23T14:06:01.111Z,18.70
2022-09-23T14:07:03.977Z,18.70
2022-09-23T14:08:05.650Z,18.70
2022-09-23T14:09:07.387Z,18.70
2022-09-23T14:10:18.867Z,18.70
2022-09-23T14:11:29.862Z,18.70
2022-09-23T14:12:34.368Z,18.70
2022-09-23T14:13:42.731Z,18.60
2022-09-23T14:14:44.428Z,18.70
2022-09-23T14:15:47.580Z,18.60
2022-09-23T14:16:50.889Z,18.50
2022-09-23T14:18:03.670Z,18.50
2022-09-23T14:19:07.869Z,18.60
2022-09-23T14:20:17.388Z,18.60
2022-09-23T14:21:39.745Z,18.60
2022-09-23T14:22:41.483Z,18.60
2022-09-23T14:23:46.214Z,18.60
2022-09-23T14:24:52.232Z,18.60
2022-09-23T14:25:55.294Z,18.70
2022-09-23T14:27:04.050Z,18.80
2022-09-23T14:28:05.820Z,18.90
2022-09-23T14:29:15.288Z,18.90
2022-09-23T14:30:18.603Z,19.00
2022-09-23T14:31:20.375Z,19.00
2022-09-23T14:32:26.281Z,19.10
2022-09-23T14:33:32.021Z,19.20
2022-09-23T14:34:45.242Z,19.20
2022-09-23T14:35:51.451Z,19.20
2022-09-23T14:37:11.617Z,19.20
2022-09-23T14:38:39.263Z,19.30
2022-09-23T14:39:40.963Z,19.30
2022-09-23T14:41:16.889Z,19.30
2022-09-23T14:42:19.855Z,19.30
2022-09-23T14:43:25.027Z,19.30
2022-09-23T14:44:28.037Z,19.30
2022-09-23T14:45:38.790Z,19.30
2022-09-23T14:46:50.097Z,19.30
2022-09-23T14:48:00.589Z,19.40
2022-09-23T14:49:11.037Z,19.40
2022-09-23T14:50:37.283Z,19.40
2022-09-23T14:51:50.007Z,19.40
2022-09-23T14:52:52.273Z,19.30
2022-09-23T14:53:53.968Z,19.30
2022-09-23T14:54:55.778Z,19.30
2022-09-23T14:56:08.546Z,19.30
2022-09-23T14:57:22.572Z,19.30
2022-09-23T14:58:30.066Z,19.30
2022-09-23T14:59:36.816Z,19.40
2022-09-23T15:00:38.534Z,19.30
2022-09-23T15:01:40.454Z,19.40
2022-09-23T15:02:44.884Z,19.40
2022-09-23T15:03:47.709Z,19.50
2022-09-23T15:04:49.560Z,19.50
2022-09-23T15:06:00.040Z,19.60
2022-09-23T15:07:14.449Z,19.60